createdAt,value
2017-12-09T00:01:49.077Z,20.33
2017-12-09T00:04:18.724Z,20.15
2017-12-09T00:06:47.703Z,16.42
2017-12-09T00:09:15.997Z,18.17
2017-12-09T00:11:45.054Z,14.95
2017-12-09T00:14:14.150Z,17.58
2017-12-09T00:16:43.211Z,20.62
2017-12-09T00:19:11.494Z,21.75
2017-12-09T00:21:41.342Z,24.02
2017-12-09T00:24:10.978Z,28.80
2017-12-09T00:26:39.539Z,31.87
2017-12-09T00:29:07.878Z,24.17
2017-12-09T00:31:36.921Z,27.17
2017-12-09T00:34:05.974Z,22.75
2017-12-09T00:36:34.327Z,24.27
2017-12-09T00:39:03.378Z,22.65
2017-12-09T00:41:32.431Z,22.27
2017-12-09T00:44:01.523Z,17.05
2017-12-09T00:46:30.942Z,15.43
2017-12-09T00:48:59.625Z,20.45
2017-12-09T00:51:28.726Z,16.37
2017-12-09T00:53:57.769Z,17.98
2017-12-09T00:56:26.058Z,24.02
2017-12-09T00:58:55.161Z,18.05
2017-12-09T01:01:23.441Z,24.15
2017-12-09T01:03:51.726Z,13.10
2017-12-09T01:06:21.212Z,13.55
2017-12-09T01:08:50.274Z,15.30
2017-12-09T01:11:20.167Z,16.45
2017-12-09T01:13:48.550Z,20.77
2017-12-09T01:16:28.476Z,24.42
2017-12-09T01:18:56.809Z,22.15
2017-12-09T01:21:25.097Z,26.40
2017-12-09T01:23:54.522Z,22.52
2017-12-09T01:26:22.851Z,23.27
2017-12-09T01:28:51.129Z,25.90
2017-12-09T01:31:19.415Z,19.30
2017-12-09T01:33:47.741Z,22.67
2017-12-09T01:36:16.798Z,17.80
2017-12-09T01:38:45.086Z,21.42
2017-12-09T01:41:13.435Z,19.02
2017-12-09T01:43:42.860Z,22.27
2017-12-09T01:46:11.915Z,23.20
2017-12-09T01:48:41.394Z,17.70
2017-12-09T01:51:09.673Z,28.08
2017-12-09T01:53:37.957Z,19.15
2017-12-09T01:56:06.294Z,23.95
2017-12-09T01:58:34.574Z,20.73
2017-12-09T02:01:02.859Z,24.87
2017-12-09T02:03:32.695Z,27.30
2017-12-09T02:06:00.991Z,18.23
2017-12-09T02:08:29.274Z,20.80
2017-12-09T02:10:59.145Z,15.75
2017-12-09T02:13:27.426Z,12.45
2017-12-09T02:15:56.638Z,13.32
2017-12-09T02:18:25.765Z,20.67
2017-12-09T02:20:54.809Z,11.50
2017-12-09T02:23:23.098Z,18.17
2017-12-09T02:25:51.413Z,11.93
2017-12-09T02:28:19.695Z,14.15
2017-12-09T02:30:48.011Z,13.35
2017-12-09T02:33:17.335Z,23.42
2017-12-09T02:35:46.970Z,14.48
2017-12-09T02:38:15.550Z,10.95
2017-12-09T02:40:43.902Z,21.40
2017-12-09T02:43:12.210Z,27.00
2017-12-09T02:45:40.890Z,13.10
2017-12-09T02:48:10.359Z,16.27
2017-12-09T02:50:38.640Z,12.25
2017-12-09T02:53:06.941Z,17.15
2017-12-09T02:55:36.638Z,15.30
2017-12-09T02:58:05.190Z,14.25
2017-12-09T03:00:34.602Z,10.82
2017-12-09T03:03:04.994Z,10.38
2017-12-09T03:05:33.292Z,12.40
2017-12-09T03:08:03.068Z,14.93
2017-12-09T03:10:31.403Z,11.00
2017-12-09T03:13:01.029Z,11.35
2017-12-09T03:15:29.182Z,9.60
2017-12-09T03:17:58.914Z,10.15
2017-12-09T03:20:27.833Z,27.30
2017-12-09T03:22:57.623Z,11.30
2017-12-09T03:25:25.949Z,10.85
2017-12-09T03:27:54.227Z,22.45
2017-12-09T03:30:22.506Z,9.63
2017-12-09T03:32:50.842Z,6.60
2017-12-09T03:35:19.117Z,7.20
2017-12-09T03:37:49.126Z,10.20
2017-12-09T03:40:18.354Z,9.93
2017-12-09T03:42:47.981Z,14.23
2017-12-09T03:45:16.543Z,14.87
2017-12-09T03:47:44.869Z,13.23
2017-12-09T03:50:13.153Z,11.32
2017-12-09T03:52:41.433Z,10.70
2017-12-09T03:55:09.779Z,14.87
2017-12-09T03:57:39.208Z,9.63
2017-12-09T04:00:07.878Z,8.65
2017-12-09T04:02:37.709Z,13.02
2017-12-09T04:05:05.982Z,7.22
2017-12-09T04:07:35.762Z,12.60
2017-12-09T04:10:04.503Z,10.48
2017-12-09T04:12:32.780Z,21.95
2017-12-09T04:15:02.573Z,19.60
2017-12-09T04:17:32.034Z,14.75
2017-12-09T04:20:01.666Z,11.25
2017-12-09T04:22:31.322Z,9.77
2017-12-09T04:25:00.514Z,14.30
2017-12-09T04:27:28.793Z,8.18
2017-12-09T04:29:58.578Z,12.27
2017-12-09T04:32:27.139Z,21.83
2017-12-09T04:34:56.542Z,11.20
2017-12-09T04:37:24.814Z,11.60
2017-12-09T04:39:53.150Z,15.15
2017-12-09T04:42:21.438Z,11.73
2017-12-09T04:44:49.724Z,19.42
2017-12-09T04:47:18.054Z,14.85
2017-12-09T04:49:46.342Z,16.70
2017-12-09T04:52:14.616Z,10.13
2017-12-09T04:54:44.470Z,10.82
2017-12-09T04:57:12.751Z,11.00
2017-12-09T04:59:41.043Z,14.38
2017-12-09T05:02:10.146Z,17.42
2017-12-09T05:04:39.194Z,14.50
2017-12-09T05:07:08.233Z,12.23
2017-12-09T05:09:37.918Z,17.65
2017-12-09T05:12:06.465Z,15.13
2017-12-09T05:14:34.758Z,13.00
2017-12-09T05:17:03.091Z,10.25
2017-12-09T05:19:32.873Z,8.82
2017-12-09T05:22:01.938Z,16.70
2017-12-09T05:24:31.029Z,12.63
2017-12-09T05:26:59.318Z,13.48
2017-12-09T05:29:28.369Z,18.65
2017-12-09T05:31:57.850Z,14.98
2017-12-09T05:34:26.131Z,10.82
2017-12-09T05:36:54.405Z,13.60
2017-12-09T05:39:22.748Z,13.10
2017-12-09T05:41:52.393Z,24.90
2017-12-09T05:44:20.946Z,11.45
2017-12-09T05:46:50.058Z,10.23
2017-12-09T05:49:19.693Z,18.98
2017-12-09T05:51:48.258Z,7.55
2017-12-09T05:54:16.585Z,10.43
2017-12-09T05:56:44.861Z,10.00
2017-12-09T05:59:13.141Z,13.30
2017-12-09T06:01:41.491Z,12.68
2017-12-09T06:04:10.530Z,11.75
2017-12-09T06:06:39.573Z,13.38
2017-12-09T06:09:07.927Z,18.67
2017-12-09T06:11:37.714Z,18.33
2017-12-09T06:14:05.985Z,11.35
2017-12-09T06:16:34.350Z,11.82
2017-12-09T06:19:03.981Z,10.98
2017-12-09T06:21:32.133Z,10.95
2017-12-09T06:24:00.482Z,15.32
2017-12-09T06:26:28.776Z,9.90
2017-12-09T06:28:57.062Z,13.25
2017-12-09T06:31:26.157Z,10.30
2017-12-09T06:33:55.802Z,12.82
2017-12-09T06:36:23.957Z,18.80
2017-12-09T06:38:53.646Z,16.85
2017-12-09T06:41:22.563Z,11.12
2017-12-09T06:43:50.851Z,13.27
2017-12-09T06:46:19.178Z,15.85
2017-12-09T06:48:47.869Z,14.02
2017-12-09T06:51:17.277Z,10.35
2017-12-09T06:53:45.610Z,17.90
2017-12-09T06:56:13.890Z,11.98
2017-12-09T06:58:43.525Z,11.38
2017-12-09T07:01:12.144Z,11.98
2017-12-09T07:03:40.417Z,16.60
2017-12-09T07:06:08.702Z,12.50
2017-12-09T07:08:37.811Z,15.23
2017-12-09T07:11:06.085Z,14.45
2017-12-09T07:13:34.387Z,14.00
2017-12-09T07:16:03.863Z,13.95
2017-12-09T07:18:32.908Z,22.27
2017-12-09T07:21:02.331Z,11.73
2017-12-09T07:23:30.658Z,18.02
2017-12-09T07:25:59.346Z,20.25
2017-12-09T07:28:27.630Z,16.17
2017-12-09T07:30:56.736Z,11.88
2017-12-09T07:33:25.405Z,15.32
2017-12-09T07:35:53.690Z,14.95
2017-12-09T07:38:23.538Z,10.70
2017-12-09T07:40:51.822Z,19.42
2017-12-09T07:43:20.110Z,22.48
2017-12-09T07:45:49.246Z,21.62
2017-12-09T07:48:17.553Z,16.85
2017-12-09T07:50:45.843Z,12.75
2017-12-09T07:53:15.682Z,14.57
2017-12-09T07:55:43.967Z,14.68
2017-12-09T07:58:13.762Z,15.63
2017-12-09T08:00:42.126Z,14.98
2017-12-09T08:03:11.912Z,25.85
2017-12-09T08:05:40.204Z,16.25
2017-12-09T08:08:08.546Z,16.70
2017-12-09T08:10:36.842Z,14.43
2017-12-09T08:13:05.122Z,15.98
2017-12-09T08:15:33.477Z,16.75
2017-12-09T08:18:03.277Z,14.95
2017-12-09T08:20:31.566Z,19.50
2017-12-09T08:22:59.927Z,19.73
2017-12-09T08:25:28.219Z,18.23
2017-12-09T08:27:57.275Z,18.00
2017-12-09T08:30:25.603Z,23.05
2017-12-09T08:32:54.670Z,16.08
2017-12-09T08:35:23.346Z,17.85
2017-12-09T08:37:51.681Z,21.98
2017-12-09T08:40:21.315Z,26.90
2017-12-09T08:42:49.874Z,22.77
2017-12-09T08:45:18.219Z,25.37
2017-12-09T08:47:47.314Z,29.27
2017-12-09T08:50:16.379Z,23.12
2017-12-09T08:52:44.737Z,31.25
2017-12-09T08:55:13.024Z,45.38
2017-12-09T08:57:41.305Z,31.55
2017-12-09T09:00:09.645Z,25.33
2017-12-09T09:02:37.930Z,25.60
2017-12-09T09:05:07.720Z,28.67
2017-12-09T09:07:36.826Z,29.08
2017-12-09T09:10:06.247Z,24.33
2017-12-09T09:12:35.928Z,28.67
2017-12-09T09:15:05.263Z,32.35
2017-12-09T09:17:33.703Z,30.90
2017-12-09T09:20:02.039Z,40.97
2017-12-09T09:22:30.327Z,29.02
2017-12-09T09:24:59.965Z,36.67
2017-12-09T09:27:28.177Z,35.50
2017-12-09T09:29:56.470Z,41.80
2017-12-09T09:32:26.259Z,43.72
2017-12-09T09:34:56.377Z,45.58
2017-12-09T09:37:24.662Z,43.17
2017-12-09T09:39:53.709Z,38.05
2017-12-09T09:42:24.745Z,35.05
2017-12-09T09:44:53.425Z,39.33
2017-12-09T09:47:23.065Z,34.30
2017-12-09T09:49:51.726Z,32.67
2017-12-09T09:52:21.362Z,34.60
2017-12-09T09:54:50.922Z,37.25
2017-12-09T09:57:19.159Z,34.45
2017-12-09T09:59:48.790Z,29.60
2017-12-09T10:02:17.725Z,30.73
2017-12-09T10:04:47.558Z,26.20
2017-12-09T10:07:16.602Z,33.67
2017-12-09T10:09:45.655Z,23.58
2017-12-09T10:12:13.991Z,28.55
2017-12-09T10:14:43.638Z,28.80
2017-12-09T10:17:12.185Z,27.35
2017-12-09T10:19:40.536Z,26.83
2017-12-09T10:22:08.819Z,25.08
2017-12-09T10:24:37.103Z,30.33
2017-12-09T10:27:05.434Z,28.45
2017-12-09T10:29:33.729Z,30.45
2017-12-09T10:32:02.799Z,26.90
2017-12-09T10:34:31.410Z,30.33
2017-12-09T10:37:00.095Z,25.67
2017-12-09T10:39:29.738Z,29.02
2017-12-09T10:41:59.454Z,20.85
2017-12-09T10:44:29.098Z,25.10
2017-12-09T10:46:58.622Z,23.65
2017-12-09T10:49:27.606Z,22.70
2017-12-09T10:51:57.247Z,25.85
2017-12-09T10:54:26.554Z,22.15
2017-12-09T10:56:54.916Z,30.85
2017-12-09T10:59:24.351Z,18.23
2017-12-09T11:01:53.994Z,24.08
2017-12-09T11:04:22.598Z,22.75
2017-12-09T11:06:50.892Z,15.93
2017-12-09T11:09:20.533Z,22.90
2017-12-09T11:11:49.512Z,23.02
2017-12-09T11:14:18.578Z,24.33
2017-12-09T11:16:48.010Z,18.70
2017-12-09T11:19:16.744Z,18.83
2017-12-09T11:21:45.039Z,23.10
2017-12-09T11:24:13.330Z,13.05
2017-12-09T11:26:41.668Z,20.90
2017-12-09T11:29:11.458Z,22.60
2017-12-09T11:31:40.513Z,18.65
2017-12-09T11:34:10.710Z,29.98
2017-12-09T11:36:39.766Z,28.92
2017-12-09T11:39:08.058Z,19.33
2017-12-09T11:41:37.170Z,17.00
2017-12-09T11:44:06.598Z,17.73
2017-12-09T11:46:36.246Z,16.87
2017-12-09T11:49:05.857Z,19.23
2017-12-09T11:51:35.542Z,18.67
2017-12-09T11:54:04.623Z,18.42
2017-12-09T11:56:32.959Z,24.87
2017-12-09T11:59:01.676Z,23.27
2017-12-09T12:01:30.732Z,25.67
2017-12-09T12:03:59.066Z,21.52
2017-12-09T12:06:27.383Z,28.00
2017-12-09T12:08:55.670Z,20.12
2017-12-09T12:11:23.997Z,21.35
2017-12-09T12:13:52.293Z,18.17
2017-12-09T12:16:20.590Z,19.08
2017-12-09T12:18:48.935Z,29.60
2017-12-09T12:21:18.365Z,25.10
2017-12-09T12:23:46.657Z,16.17
2017-12-09T12:26:14.995Z,19.15
2017-12-09T12:28:44.418Z,21.40
2017-12-09T12:31:14.068Z,20.88
2017-12-09T12:33:43.439Z,25.23
2017-12-09T12:36:12.502Z,20.35
2017-12-09T12:38:41.609Z,21.95
2017-12-09T12:41:10.714Z,27.70
2017-12-09T12:43:40.526Z,17.80
2017-12-09T12:46:08.820Z,20.62
2017-12-09T12:48:37.158Z,21.73
2017-12-09T12:51:05.445Z,20.97
2017-12-09T12:53:33.738Z,20.58
2017-12-09T12:56:02.148Z,19.85
2017-12-09T12:58:30.437Z,21.63
2017-12-09T13:00:59.490Z,29.23
2017-12-09T13:03:27.832Z,29.85
2017-12-09T13:05:56.129Z,18.25
2017-12-09T13:08:26.630Z,25.40
2017-12-09T13:10:55.266Z,18.65
2017-12-09T13:13:24.701Z,16.63
2017-12-09T13:15:52.981Z,16.37
2017-12-09T13:18:21.337Z,15.30
2017-12-09T13:20:50.398Z,17.48
2017-12-09T13:23:18.710Z,20.73
2017-12-09T13:25:48.675Z,13.07
2017-12-09T13:28:16.967Z,20.60
2017-12-09T13:30:45.258Z,21.95
2017-12-09T13:33:13.600Z,15.00
2017-12-09T13:35:43.035Z,12.90
2017-12-09T13:38:12.680Z,17.30
2017-12-09T13:40:41.300Z,19.37
2017-12-09T13:43:09.605Z,17.57
2017-12-09T13:45:37.923Z,15.10
2017-12-09T13:48:06.271Z,13.23
2017-12-09T13:50:34.558Z,13.30
2017-12-09T13:53:02.858Z,13.53
2017-12-09T13:55:32.150Z,13.75
2017-12-09T13:58:00.844Z,11.40
2017-12-09T14:00:29.126Z,13.63
2017-12-09T14:02:58.833Z,16.33
2017-12-09T14:05:28.498Z,16.17
2017-12-09T14:07:58.134Z,16.65
2017-12-09T14:10:26.767Z,14.80
2017-12-09T14:12:55.070Z,15.32
2017-12-09T14:15:24.846Z,12.20
2017-12-09T14:17:53.598Z,12.27
2017-12-09T14:20:23.027Z,14.13
2017-12-09T14:22:51.307Z,18.37
2017-12-09T14:25:19.651Z,13.33
2017-12-09T14:27:49.304Z,17.90
2017-12-09T14:30:19.462Z,15.40
2017-12-09T14:32:48.007Z,16.70
2017-12-09T14:35:16.689Z,12.07
2017-12-09T14:37:45.243Z,12.02
2017-12-09T14:40:13.922Z,17.53
2017-12-09T14:42:42.206Z,27.17
2017-12-09T14:45:10.595Z,8.53
2017-12-09T14:47:40.212Z,11.43
2017-12-09T14:50:08.371Z,13.10
2017-12-09T14:52:36.690Z,17.00
2017-12-09T14:55:04.968Z,8.63
2017-12-09T14:57:33.250Z,16.65
2017-12-09T15:00:01.577Z,11.77
2017-12-09T15:02:29.858Z,13.97
2017-12-09T15:04:58.156Z,16.50
2017-12-09T15:07:27.258Z,14.40
2017-12-09T15:09:55.530Z,15.53
2017-12-09T15:12:24.577Z,20.97
2017-12-09T15:14:54.049Z,15.15
2017-12-09T15:17:22.331Z,22.40
2017-12-09T15:19:50.623Z,18.23
2017-12-09T15:22:18.940Z,11.77
2017-12-09T15:24:47.977Z,14.23
2017-12-09T15:27:17.391Z,11.97
2017-12-09T15:29:46.118Z,10.80
2017-12-09T15:32:14.404Z,14.47
2017-12-09T15:34:42.694Z,15.33
2017-12-09T15:37:11.026Z,12.25
2017-12-09T15:39:39.301Z,14.37
2017-12-09T15:42:07.585Z,14.40
2017-12-09T15:44:37.078Z,12.80
2017-12-09T15:47:06.713Z,14.40
2017-12-09T15:49:35.288Z,17.10
2017-12-09T15:52:03.827Z,14.00
2017-12-09T15:54:33.627Z,9.50
2017-12-09T15:57:01.898Z,17.45
2017-12-09T15:59:31.362Z,11.37
2017-12-09T16:02:00.411Z,14.20
2017-12-09T16:04:28.694Z,9.00
2017-12-09T16:06:57.028Z,15.10
2017-12-09T16:09:26.074Z,10.50
2017-12-09T16:11:54.354Z,11.75
2017-12-09T16:14:24.190Z,8.68
2017-12-09T16:16:53.838Z,13.38
2017-12-09T16:19:23.353Z,20.52
2017-12-09T16:21:52.649Z,16.37
2017-12-09T16:24:20.946Z,18.37
2017-12-09T16:26:49.235Z,10.45
2017-12-09T16:29:17.561Z,9.63
2017-12-09T16:31:45.879Z,14.13
2017-12-09T16:34:14.161Z,8.90
2017-12-09T16:36:43.641Z,14.10
2017-12-09T16:39:11.927Z,13.62
2017-12-09T16:41:41.370Z,11.65
2017-12-09T16:44:10.486Z,15.52
2017-12-09T16:46:38.777Z,12.52
2017-12-09T16:49:07.851Z,12.15
2017-12-09T16:51:36.180Z,12.63
2017-12-09T16:54:04.555Z,24.75
2017-12-09T16:56:33.983Z,12.30
2017-12-09T16:59:04.081Z,12.95
2017-12-09T17:01:33.138Z,16.80
2017-12-09T17:04:01.443Z,12.80
2017-12-09T17:06:30.533Z,15.40
2017-12-09T17:09:00.071Z,10.32
2017-12-09T17:11:29.149Z,21.48
2017-12-09T17:13:58.850Z,10.15
2017-12-09T17:16:27.431Z,12.48
2017-12-09T17:18:56.125Z,13.80
2017-12-09T17:21:25.841Z,10.25
2017-12-09T17:23:54.007Z,13.62
2017-12-09T17:26:22.290Z,16.33
2017-12-09T17:28:50.674Z,19.08
2017-12-09T17:31:20.578Z,17.03
2017-12-09T17:33:49.642Z,12.53
2017-12-09T17:36:19.378Z,12.63
2017-12-09T17:38:47.941Z,8.97
2017-12-09T17:41:16.234Z,12.15
2017-12-09T17:43:44.571Z,12.32
2017-12-09T17:46:12.863Z,7.73
2017-12-09T17:48:41.139Z,17.50
2017-12-09T17:51:09.476Z,8.93
2017-12-09T17:53:37.759Z,14.82
2017-12-09T17:56:07.173Z,10.73
2017-12-09T17:58:35.505Z,7.43
2017-12-09T18:01:03.786Z,10.88
2017-12-09T18:03:33.424Z,6.47
2017-12-09T18:06:02.041Z,16.08
2017-12-09T18:08:30.322Z,13.48
2017-12-09T18:10:58.610Z,9.73
2017-12-09T18:13:27.797Z,14.13
2017-12-09T18:15:56.054Z,6.65
2017-12-09T18:18:24.347Z,13.13
2017-12-09T18:20:52.675Z,8.05
2017-12-09T18:23:22.112Z,8.00
2017-12-09T18:25:50.393Z,7.97
2017-12-09T18:28:18.722Z,9.40
2017-12-09T18:30:46.997Z,9.43
2017-12-09T18:33:15.286Z,8.65
2017-12-09T18:35:43.606Z,13.55
2017-12-09T18:38:13.242Z,9.70
2017-12-09T18:40:41.399Z,7.20
2017-12-09T18:43:09.751Z,9.45
2017-12-09T18:45:38.035Z,10.43
2017-12-09T18:48:07.127Z,6.63
2017-12-09T18:50:35.487Z,7.97
2017-12-09T18:53:04.531Z,10.18
2017-12-09T18:55:33.209Z,11.52
2017-12-09T18:58:01.930Z,9.60
2017-12-09T19:00:31.721Z,6.15
2017-12-09T19:03:00.004Z,11.10
2017-12-09T19:05:28.327Z,7.60
2017-12-09T19:07:56.616Z,14.70
2017-12-09T19:10:24.897Z,7.60
2017-12-09T19:12:54.383Z,10.23
2017-12-09T19:15:22.679Z,9.05
2017-12-09T19:17:51.035Z,8.05
2017-12-09T19:20:20.909Z,9.02
2017-12-09T19:22:49.193Z,9.65
2017-12-09T19:25:17.476Z,6.15
2017-12-09T19:27:47.147Z,13.73
2017-12-09T19:30:16.202Z,8.75
2017-12-09T19:32:44.888Z,6.97
2017-12-09T19:35:13.290Z,8.10
2017-12-09T19:37:43.134Z,10.27
2017-12-09T19:40:11.434Z,10.00
2017-12-09T19:42:39.770Z,7.00
2017-12-09T19:45:08.047Z,10.48
2017-12-09T19:47:36.326Z,8.30
2017-12-09T19:50:04.690Z,5.85
2017-12-09T19:52:34.103Z,6.55
2017-12-09T19:55:02.382Z,7.68
2017-12-09T19:57:30.722Z,9.88
2017-12-09T19:59:59.412Z,9.88
2017-12-09T20:02:28.830Z,10.07
2017-12-09T20:04:57.161Z,6.07
2017-12-09T20:07:31.198Z,5.12
2017-12-09T20:09:59.522Z,6.97
2017-12-09T20:12:27.802Z,10.40
2017-12-09T20:14:56.071Z,8.52
2017-12-09T20:17:25.171Z,9.27
2017-12-09T20:19:53.450Z,8.00
2017-12-09T20:22:21.726Z,7.18
2017-12-09T20:24:50.075Z,9.38
2017-12-09T20:27:18.371Z,15.82
2017-12-09T20:29:46.671Z,15.30
2017-12-09T20:32:15.769Z,9.32
2017-12-09T20:34:44.437Z,9.88
2017-12-09T20:37:14.232Z,15.10
2017-12-09T20:39:42.570Z,9.57
2017-12-09T20:42:10.854Z,8.07
2017-12-09T20:44:39.130Z,9.60
2017-12-09T20:47:09.011Z,5.15
2017-12-09T20:49:38.422Z,6.15
2017-12-09T20:52:06.709Z,6.35
2017-12-09T20:54:35.837Z,9.88
2017-12-09T20:57:04.878Z,8.60
2017-12-09T20:59:34.517Z,10.88
2017-12-09T21:02:03.120Z,8.52
2017-12-09T21:04:31.403Z,12.15
2017-12-09T21:06:59.689Z,8.00
2017-12-09T21:09:28.025Z,7.47
2017-12-09T21:11:56.321Z,11.60
2017-12-09T21:14:26.286Z,10.88
2017-12-09T21:16:54.626Z,7.78
2017-12-09T21:19:22.919Z,10.48
2017-12-09T21:21:52.328Z,8.98
2017-12-09T21:24:20.654Z,7.72
2017-12-09T21:26:48.937Z,10.10
2017-12-09T21:29:17.231Z,9.45
2017-12-09T21:31:47.169Z,9.98
2017-12-09T21:34:15.330Z,8.70
2017-12-09T21:36:44.958Z,8.93
2017-12-09T21:39:13.165Z,6.87
2017-12-09T21:41:42.966Z,7.70
2017-12-09T21:44:11.254Z,7.05
2017-12-09T21:46:39.627Z,8.88
2017-12-09T21:49:07.906Z,14.55
2017-12-09T21:51:36.232Z,6.97
2017-12-09T21:54:04.547Z,6.78
2017-12-09T21:56:33.595Z,10.65
2017-12-09T21:59:01.886Z,10.68
2017-12-09T22:01:30.239Z,7.57
2017-12-09T22:03:58.515Z,14.65
2017-12-09T22:06:26.797Z,9.75
2017-12-09T22:08:55.185Z,6.57
2017-12-09T22:11:24.969Z,8.55
2017-12-09T22:13:53.252Z,8.68
2017-12-09T22:16:21.586Z,7.18
2017-12-09T22:18:50.637Z,13.93
2017-12-09T22:21:19.686Z,8.60
2017-12-09T22:23:48.788Z,6.12
2017-12-09T22:26:18.421Z,7.95
2017-12-09T22:28:46.578Z,8.57
2017-12-09T22:31:15.679Z,9.93
2017-12-09T22:33:43.959Z,8.25
2017-12-09T22:36:12.245Z,10.15
2017-12-09T22:38:40.581Z,7.85
2017-12-09T22:41:10.612Z,10.13
2017-12-09T22:43:40.297Z,7.57
2017-12-09T22:46:08.495Z,6.28
2017-12-09T22:48:36.771Z,7.90
2017-12-09T22:51:05.110Z,10.05
2017-12-09T22:53:34.167Z,12.63
2017-12-09T22:56:03.234Z,8.55
2017-12-09T22:58:31.575Z,7.55
2017-12-09T23:01:00.254Z,5.45
2017-12-09T23:03:28.534Z,6.78
2017-12-09T23:05:56.893Z,7.95
2017-12-09T23:08:26.694Z,9.10
2017-12-09T23:10:54.966Z,7.72
2017-12-09T23:13:23.297Z,6.68
2017-12-09T23:15:51.568Z,7.10
2017-12-09T23:18:19.846Z,9.02
2017-12-09T23:20:48.187Z,9.88
2017-12-09T23:23:16.471Z,8.50
2017-12-09T23:25:44.753Z,10.70
2017-12-09T23:28:14.219Z,7.53
2017-12-09T23:30:44.010Z,6.62
2017-12-09T23:33:12.700Z,12.10
2017-12-09T23:35:43.997Z,12.13
2017-12-09T23:38:13.048Z,5.72
2017-12-09T23:40:41.325Z,11.85
2017-12-09T23:43:10.431Z,6.00
2017-12-09T23:45:46.498Z,8.40
2017-12-09T23:48:15.041Z,12.00
2017-12-09T23:50:44.826Z,9.02
2017-12-09T23:53:13.118Z,12.40
2017-12-09T23:55:41.451Z,7.60
2017-12-09T23:58:09.755Z,7.22
